Time;durP1;ratioP1;P1;durP2;ratioP2;P2;SDS_P1;SDS_P2;PMS_P1;PMS_P2;Temp;Humidity;BMP_temperature;BMP_pressure;BME280_temperature;BME280_humidity;BME280_pressure;Samples;Min_cycle;Max_cycle;Signal;HPM_P1;HPM_P2
2023/04/22 00:02:05;;;;;;;14.15;9.00;;;9.20;99.90;;;;;;4989524;28;20041;-68
2023/04/22 00:04:30;;;;;;;17.63;9.07;;;9.10;99.90;;;;;;4989806;28;20073;-68
2023/04/22 00:06:56;;;;;;;17.27;8.95;;;9.00;99.90;;;;;;4989471;28;20061;-67
2023/04/22 00:09:22;;;;;;;16.52;8.98;;;8.90;99.90;;;;;;4989513;28;20050;-67
2023/04/22 00:11:48;;;;;;;17.42;9.60;;;8.90;99.90;;;;;;4989552;28;20068;-67
2023/04/22 00:14:14;;;;;;;15.20;8.55;;;8.80;99.90;;;;;;4989357;28;20066;-67
2023/04/22 00:16:39;;;;;;;16.95;9.25;;;8.80;99.90;;;;;;4986017;28;20066;-67
2023/04/22 00:19:05;;;;;;;17.67;9.27;;;8.80;99.90;;;;;;4990912;28;20038;-67
2023/04/22 00:21:31;;;;;;;19.65;8.88;;;8.80;99.90;;;;;;4988522;28;20030;-68
2023/04/22 00:23:57;;;;;;;18.95;9.73;;;8.80;99.90;;;;;;4990339;28;20042;-67
2023/04/22 00:26:23;;;;;;;19.90;9.18;;;8.80;99.90;;;;;;4989974;28;20040;-67
2023/04/22 00:28:49;;;;;;;21.98;10.35;;;8.90;99.90;;;;;;4987251;28;20137;-68
2023/04/22 00:31:14;;;;;;;17.27;9.80;;;8.90;99.90;;;;;;4988419;28;20034;-67
2023/04/22 00:33:40;;;;;;;22.40;10.45;;;8.90;99.90;;;;;;4989889;28;20034;-67
2023/04/22 00:36:06;;;;;;;19.38;10.30;;;8.90;99.90;;;;;;4987547;28;20034;-67
2023/04/22 00:38:32;;;;;;;18.60;10.18;;;8.80;99.90;;;;;;4989052;28;20034;-68
2023/04/22 00:40:58;;;;;;;23.30;10.10;;;8.80;99.90;;;;;;4988943;28;20450;-66
2023/04/22 00:43:23;;;;;;;18.13;9.80;;;8.80;99.90;;;;;;4990597;28;20093;-68
2023/04/22 00:45:49;;;;;;;19.25;9.98;;;8.80;99.90;;;;;;4987828;28;20027;-68
2023/04/22 00:48:15;;;;;;;17.58;9.52;;;8.70;99.90;;;;;;4990056;28;20035;-67
2023/04/22 00:50:41;;;;;;;18.73;10.15;;;8.70;99.90;;;;;;4971537;28;20030;-68
2023/04/22 00:53:06;;;;;;;18.92;10.10;;;8.70;99.90;;;;;;4989737;28;20049;-67
2023/04/22 00:55:32;;;;;;;20.00;9.57;;;8.70;99.90;;;;;;4986827;28;20122;-67
2023/04/22 00:58:01;;;;;;;19.25;9.88;;;8.70;99.90;;;;;;4990409;28;20034;-67
2023/04/22 01:00:27;;;;;;;19.63;9.48;;;8.70;99.90;;;;;;4988246;28;20478;-67
2023/04/22 01:02:54;;;;;;;18.70;9.18;;;8.70;99.90;;;;;;4988709;28;20038;-68
2023/04/22 01:05:20;;;;;;;17.73;8.73;;;8.70;99.90;;;;;;4988588;28;20038;-67
2023/04/22 01:07:46;;;;;;;16.08;8.90;;;8.70;99.90;;;;;;4986897;28;21195;-67
2023/04/22 01:10:12;;;;;;;17.77;8.85;;;8.70;99.90;;;;;;4979837;28;20042;-69
2023/04/22 01:12:37;;;;;;;16.88;8.60;;;8.70;99.90;;;;;;4971713;28;20407;-68
2023/04/22 01:15:04;;;;;;;21.00;9.27;;;8.70;99.90;;;;;;4988339;28;20042;-70
2023/04/22 01:17:33;;;;;;;15.82;9.10;;;8.60;99.90;;;;;;4988117;28;20054;-68
2023/04/22 01:19:58;;;;;;;17.88;9.43;;;8.60;99.90;;;;;;4989352;28;20057;-68
2023/04/22 01:22:28;;;;;;;17.75;9.20;;;8.60;99.90;;;;;;4990033;28;20108;-67
2023/04/22 01:24:54;;;;;;;25.73;9.53;;;8.60;99.90;;;;;;4987146;28;20050;-67
2023/04/22 01:27:20;;;;;;;19.08;8.77;;;8.60;99.90;;;;;;4988217;28;20496;-69
2023/04/22 01:29:46;;;;;;;21.95;8.80;;;8.60;99.90;;;;;;4988009;28;20042;-67
2023/04/22 01:32:13;;;;;;;16.15;8.90;;;8.50;99.90;;;;;;4989591;28;20085;-69
2023/04/22 01:34:38;;;;;;;19.00;8.10;;;8.50;99.90;;;;;;4987270;28;20065;-68
2023/04/22 01:37:06;;;;;;;18.77;9.40;;;8.50;99.90;;;;;;4988187;28;20031;-67
2023/04/22 01:39:32;;;;;;;18.58;8.93;;;8.40;99.90;;;;;;4988401;28;20112;-68
2023/04/22 01:41:58;;;;;;;15.40;8.35;;;8.30;99.90;;;;;;4988514;28;20022;-67
2023/04/22 01:44:25;;;;;;;21.35;8.55;;;8.20;99.90;;;;;;4987315;28;20069;-67
2023/04/22 01:46:50;;;;;;;18.88;8.43;;;8.10;99.90;;;;;;4987056;28;20076;-69
2023/04/22 01:49:16;;;;;;;16.48;8.80;;;8.20;99.90;;;;;;4989560;28;20525;-66
2023/04/22 01:51:41;;;;;;;20.95;9.23;;;8.20;99.90;;;;;;4988111;28;20084;-67
2023/04/22 01:54:08;;;;;;;15.93;8.75;;;8.10;99.90;;;;;;4989078;28;20027;-67
2023/04/22 01:56:35;;;;;;;17.40;8.27;;;8.10;99.90;;;;;;4986642;28;20042;-68
2023/04/22 01:59:00;;;;;;;22.08;9.13;;;8.00;99.90;;;;;;4988596;28;20037;-68
2023/04/22 02:01:26;;;;;;;19.33;9.30;;;8.10;99.90;;;;;;4988610;28;20031;-67
2023/04/22 02:03:51;;;;;;;17.40;7.80;;;8.10;99.90;;;;;;4987759;28;20606;-68
2023/04/22 02:06:17;;;;;;;20.63;6.75;;;8.20;99.90;;;;;;4985629;28;20117;-67
2023/04/22 02:08:43;;;;;;;12.32;6.35;;;8.30;99.90;;;;;;4981393;28;20133;-67
2023/04/22 02:11:08;;;;;;;12.10;5.38;;;8.50;99.90;;;;;;4987584;28;20034;-67
2023/04/22 02:13:39;;;;;;;15.65;7.78;;;8.80;99.90;;;;;;4987230;28;20655;-70
2023/04/22 02:16:06;;;;;;;15.07;7.97;;;8.70;99.90;;;;;;4988668;28;20035;-67
2023/04/22 02:18:32;;;;;;;13.02;7.18;;;8.50;99.90;;;;;;4987486;28;20058;-68
2023/04/22 02:20:57;;;;;;;14.13;7.30;;;8.30;99.90;;;;;;4988148;28;20035;-68
2023/04/22 02:23:24;;;;;;;12.85;6.57;;;8.40;99.90;;;;;;4987650;28;20026;-68
2023/04/22 02:25:51;;;;;;;11.25;5.93;;;8.50;99.90;;;;;;4986667;28;20037;-68
2023/04/22 02:28:17;;;;;;;16.08;7.75;;;8.50;99.90;;;;;;4987290;28;20117;-68
2023/04/22 02:30:46;;;;;;;17.13;7.82;;;8.60;99.90;;;;;;4987084;28;20096;-67
2023/04/22 02:33:11;;;;;;;15.25;7.82;;;8.60;99.90;;;;;;4988240;28;20034;-68
2023/04/22 02:35:37;;;;;;;15.18;7.80;;;8.50;99.90;;;;;;4986640;28;20048;-69
2023/04/22 02:38:03;;;;;;;13.80;7.60;;;8.50;99.90;;;;;;4991110;28;20035;-67
2023/04/22 02:40:28;;;;;;;16.27;8.23;;;8.50;99.90;;;;;;4992308;28;20034;-68
2023/04/22 02:42:55;;;;;;;14.27;8.00;;;8.40;99.90;;;;;;4991213;28;20666;-67
2023/04/22 02:45:20;;;;;;;18.30;7.75;;;8.40;99.90;;;;;;4991194;28;20042;-67
2023/04/22 02:47:46;;;;;;;14.20;6.93;;;8.40;99.90;;;;;;4990991;28;20037;-67
2023/04/22 02:50:11;;;;;;;14.30;7.25;;;8.50;99.90;;;;;;4991590;28;20046;-67
2023/04/22 02:52:37;;;;;;;12.32;6.07;;;8.50;99.90;;;;;;4992067;28;20489;-69
2023/04/22 02:55:03;;;;;;;18.42;6.32;;;8.50;99.90;;;;;;4990826;28;20030;-68
2023/04/22 02:57:29;;;;;;;12.13;6.07;;;8.60;99.90;;;;;;4992020;28;20031;-68
2023/04/22 02:59:55;;;;;;;13.48;7.05;;;8.70;99.90;;;;;;4974171;28;20021;-68
2023/04/22 03:02:21;;;;;;;9.95;5.55;;;8.70;99.90;;;;;;4991054;28;20065;-68
2023/04/22 03:04:47;;;;;;;10.55;5.97;;;8.80;99.90;;;;;;4990433;28;20042;-67
2023/04/22 03:07:13;;;;;;;12.43;7.05;;;8.90;99.90;;;;;;4990555;28;20779;-68
2023/04/22 03:09:38;;;;;;;13.63;7.50;;;8.70;99.90;;;;;;4991137;28;20034;-68
2023/04/22 03:12:04;;;;;;;12.98;7.05;;;8.60;99.90;;;;;;4991592;28;20427;-68
2023/04/22 03:14:30;;;;;;;12.35;5.32;;;8.40;99.90;;;;;;4991631;28;20144;-68
2023/04/22 03:16:56;;;;;;;8.13;4.40;;;8.50;99.90;;;;;;4989338;28;20207;-68
2023/04/22 03:19:21;;;;;;;8.93;4.70;;;8.60;99.90;;;;;;4991010;28;20054;-68
2023/04/22 03:21:47;;;;;;;9.60;4.72;;;8.80;99.90;;;;;;4982966;28;20027;-67
2023/04/22 03:24:12;;;;;;;14.10;7.00;;;8.90;99.90;;;;;;4985096;28;20034;-67
2023/04/22 03:26:38;;;;;;;14.07;6.90;;;8.90;99.90;;;;;;4989621;28;20042;-70
2023/04/22 03:29:04;;;;;;;17.08;8.35;;;8.80;99.90;;;;;;4991038;28;20042;-67
2023/04/22 03:31:30;;;;;;;15.45;8.07;;;8.70;99.90;;;;;;4991005;28;20041;-67
2023/04/22 03:33:55;;;;;;;13.38;7.43;;;8.50;99.90;;;;;;4989343;28;20041;-68
2023/04/22 03:36:21;;;;;;;13.20;7.18;;;8.30;99.90;;;;;;4989878;28;20073;-67
2023/04/22 03:38:47;;;;;;;13.88;7.13;;;8.30;99.90;;;;;;4989786;28;20045;-67
2023/04/22 03:41:12;;;;;;;17.27;8.02;;;8.20;99.90;;;;;;4991303;28;20053;-67
2023/04/22 03:43:38;;;;;;;15.10;7.53;;;8.20;99.90;;;;;;4991585;28;20517;-70
2023/04/22 03:46:04;;;;;;;14.02;7.32;;;8.30;99.90;;;;;;4989196;28;20041;-69
2023/04/22 03:48:34;;;;;;;18.48;8.07;;;8.20;99.90;;;;;;4990679;28;20074;-67
2023/04/22 03:51:00;;;;;;;13.32;7.22;;;8.30;99.90;;;;;;4988906;28;20038;-69
2023/04/22 03:53:26;;;;;;;14.25;7.50;;;8.30;99.90;;;;;;4990078;28;20053;-68
2023/04/22 03:55:52;;;;;;;12.90;6.97;;;8.30;99.90;;;;;;4985210;28;20411;-68
2023/04/22 03:58:18;;;;;;;12.10;6.25;;;8.40;99.90;;;;;;4987267;28;20080;-68
2023/04/22 04:00:43;;;;;;;16.33;6.75;;;8.40;99.90;;;;;;4989007;28;20034;-67
2023/04/22 04:03:09;;;;;;;13.25;6.60;;;8.40;99.90;;;;;;4996517;28;20033;-67
2023/04/22 04:05:35;;;;;;;14.32;7.22;;;8.40;99.90;;;;;;4988322;28;20569;-67
2023/04/22 04:08:02;;;;;;;13.63;7.15;;;8.40;99.90;;;;;;4972887;28;20054;-67
2023/04/22 04:10:27;;;;;;;12.48;7.25;;;8.40;99.90;;;;;;4991342;28;20030;-67
2023/04/22 04:12:53;;;;;;;13.55;7.20;;;8.40;99.90;;;;;;4990246;28;20045;-68
2023/04/22 04:15:20;;;;;;;14.23;7.07;;;8.40;99.90;;;;;;4988812;28;20061;-67
2023/04/22 04:17:46;;;;;;;15.50;7.25;;;8.30;99.90;;;;;;4990210;28;20388;-67
2023/04/22 04:20:13;;;;;;;13.63;7.47;;;8.20;99.90;;;;;;4989442;28;20131;-67
2023/04/22 04:22:39;;;;;;;15.13;7.68;;;8.20;99.90;;;;;;4991187;28;20097;-67
2023/04/22 04:25:05;;;;;;;14.25;7.13;;;8.20;99.90;;;;;;4987183;28;20114;-69
2023/04/22 04:27:32;;;;;;;12.00;6.22;;;8.10;99.90;;;;;;4989395;28;20043;-67
2023/04/22 04:29:58;;;;;;;14.57;6.35;;;8.10;99.90;;;;;;4987790;28;20547;-69
2023/04/22 04:32:24;;;;;;;11.48;6.13;;;8.20;99.90;;;;;;4990722;28;20109;-68
2023/04/22 04:34:49;;;;;;;13.18;6.43;;;8.20;99.90;;;;;;4987010;28;20089;-69
2023/04/22 04:37:15;;;;;;;12.50;6.88;;;8.20;99.90;;;;;;5000889;28;20034;-68
2023/04/22 04:39:42;;;;;;;13.15;6.50;;;8.20;99.90;;;;;;4989669;28;20080;-69
2023/04/22 04:42:08;;;;;;;12.93;6.75;;;8.30;99.90;;;;;;4990156;28;20027;-68
2023/04/22 04:44:34;;;;;;;12.05;6.90;;;8.30;99.90;;;;;;4987519;28;20070;-67
2023/04/22 04:47:00;;;;;;;14.05;7.15;;;8.40;99.90;;;;;;4987653;28;20879;-68
2023/04/22 04:49:29;;;;;;;14.18;7.13;;;8.40;99.90;;;;;;4988499;28;20038;-68
2023/04/22 04:51:56;;;;;;;13.25;6.75;;;8.30;99.90;;;;;;4986208;28;20105;-68
2023/04/22 04:54:22;;;;;;;12.13;6.75;;;8.20;99.90;;;;;;4981278;28;20085;-68
2023/04/22 04:56:47;;;;;;;18.02;7.55;;;8.20;99.90;;;;;;4984375;28;20038;-68
2023/04/22 04:59:13;;;;;;;14.23;7.80;;;8.30;99.90;;;;;;4989984;28;20030;-69
2023/04/22 05:01:39;;;;;;;14.23;7.32;;;8.20;99.90;;;;;;4972072;28;20047;-69
2023/04/22 05:04:05;;;;;;;12.70;7.50;;;8.20;99.90;;;;;;4988849;28;20034;-69
2023/04/22 05:06:31;;;;;;;12.50;7.45;;;8.20;99.90;;;;;;4990268;28;20351;-68
2023/04/22 05:08:57;;;;;;;12.48;7.07;;;8.30;99.90;;;;;;4985908;28;20112;-69
2023/04/22 05:11:23;;;;;;;15.35;8.23;;;8.30;99.90;;;;;;4994254;28;20113;-69
2023/04/22 05:13:48;;;;;;;14.82;7.40;;;8.30;99.90;;;;;;4988187;28;20037;-69
2023/04/22 05:16:14;;;;;;;13.70;7.03;;;8.30;99.90;;;;;;4987096;28;20378;-69
2023/04/22 05:18:40;;;;;;;13.18;7.13;;;8.30;99.90;;;;;;4990216;28;20026;-69
2023/04/22 05:21:06;;;;;;;14.75;8.15;;;8.30;99.90;;;;;;4986860;28;20123;-69
2023/04/22 05:23:31;;;;;;;15.65;7.80;;;8.30;99.90;;;;;;4985903;28;20230;-69
2023/04/22 05:25:57;;;;;;;13.73;7.28;;;8.30;99.90;;;;;;4986909;28;20041;-69
2023/04/22 05:28:23;;;;;;;16.02;7.43;;;8.40;99.90;;;;;;4985548;28;20041;-68
2023/04/22 05:30:48;;;;;;;14.05;7.25;;;8.50;99.90;;;;;;4987458;28;20058;-69
2023/04/22 05:33:14;;;;;;;13.55;8.05;;;8.50;99.90;;;;;;4987372;28;20038;-69
2023/04/22 05:35:40;;;;;;;12.30;6.72;;;8.60;99.90;;;;;;4986209;28;20038;-69
2023/04/22 05:38:06;;;;;;;13.55;7.10;;;8.70;99.90;;;;;;4985531;28;20640;-69
2023/04/22 05:40:32;;;;;;;13.73;7.63;;;8.70;99.90;;;;;;4988537;28;20035;-69
2023/04/22 05:42:57;;;;;;;15.40;7.72;;;8.70;99.90;;;;;;4976943;28;20027;-69
2023/04/22 05:45:23;;;;;;;15.38;8.02;;;8.70;99.90;;;;;;4982126;28;20129;-69
2023/04/22 05:47:49;;;;;;;14.48;7.78;;;8.70;99.90;;;;;;4983796;28;20467;-69
2023/04/22 05:50:14;;;;;;;14.23;7.60;;;8.70;99.90;;;;;;4989323;28;20026;-68
2023/04/22 05:52:40;;;;;;;15.95;8.18;;;8.70;99.90;;;;;;4987916;28;20030;-68
2023/04/22 05:55:06;;;;;;;14.00;7.40;;;8.80;99.90;;;;;;4970886;28;20241;-69
2023/04/22 05:57:32;;;;;;;14.68;7.30;;;8.80;99.90;;;;;;4979754;28;20089;-69
2023/04/22 06:00:02;;;;;;;15.52;7.90;;;8.80;99.90;;;;;;4984982;28;20109;-69
2023/04/22 06:02:28;;;;;;;13.93;6.80;;;8.90;99.90;;;;;;4983513;28;20030;-69
2023/04/22 06:04:53;;;;;;;10.82;5.43;;;8.90;99.90;;;;;;4985726;28;20046;-69
2023/04/22 06:07:19;;;;;;;8.82;4.43;;;9.10;99.90;;;;;;4974317;28;20038;-69
2023/04/22 06:09:45;;;;;;;8.25;4.80;;;9.20;99.90;;;;;;4986888;28;20030;-69
2023/04/22 06:12:10;;;;;;;8.77;4.30;;;9.30;99.90;;;;;;4983949;28;20030;-69
2023/04/22 06:14:36;;;;;;;11.48;5.45;;;9.50;99.90;;;;;;4970640;28;20041;-69
2023/04/22 06:17:03;;;;;;;14.05;6.82;;;9.60;99.90;;;;;;4987550;28;20116;-69
2023/04/22 06:19:28;;;;;;;11.70;5.35;;;9.70;99.90;;;;;;4997310;28;20031;-69
2023/04/22 06:21:54;;;;;;;13.55;7.65;;;9.90;99.90;;;;;;4986786;28;20430;-69
2023/04/22 06:24:21;;;;;;;8.52;4.35;;;9.90;99.90;;;;;;4981645;28;20035;-69
2023/04/22 06:26:46;;;;;;;8.43;3.50;;;10.10;99.90;;;;;;4969892;28;20498;-70
2023/04/22 06:29:12;;;;;;;9.70;5.15;;;10.30;99.90;;;;;;4987759;28;20030;-69
2023/04/22 06:31:37;;;;;;;12.27;5.90;;;10.50;99.90;;;;;;4986390;28;20434;-69
2023/04/22 06:34:04;;;;;;;12.85;4.40;;;10.50;99.90;;;;;;4984186;28;20038;-70
2023/04/22 06:36:30;;;;;;;10.75;4.90;;;10.60;99.90;;;;;;4993357;28;20030;-69
2023/04/22 06:38:56;;;;;;;5.13;2.95;;;10.70;99.90;;;;;;4980148;28;20034;-69
2023/04/22 06:41:22;;;;;;;6.63;3.00;;;10.80;99.90;;;;;;4989092;28;20522;-69
2023/04/22 06:43:48;;;;;;;7.03;3.00;;;10.90;99.90;;;;;;4980840;28;20050;-68
2023/04/22 06:46:15;;;;;;;5.20;3.17;;;11.00;99.90;;;;;;4987080;28;20128;-69
2023/04/22 06:48:41;;;;;;;4.53;2.70;;;11.20;99.90;;;;;;4986075;28;20058;-70
2023/04/22 06:51:06;;;;;;;4.88;2.60;;;11.30;99.90;;;;;;4987822;28;20038;-69
2023/04/22 06:53:32;;;;;;;8.15;3.30;;;11.40;99.90;;;;;;4976812;28;20042;-69
2023/04/22 06:55:57;;;;;;;6.28;3.22;;;11.50;99.90;;;;;;4985800;28;20085;-69
2023/04/22 06:58:23;;;;;;;6.55;3.30;;;11.60;99.90;;;;;;4976417;28;20046;-68
2023/04/22 07:00:49;;;;;;;7.20;3.20;;;11.70;99.90;;;;;;4988209;28;20033;-69
2023/04/22 07:03:14;;;;;;;6.22;3.10;;;11.70;99.90;;;;;;4985497;28;20026;-69
2023/04/22 07:05:40;;;;;;;5.78;2.80;;;11.80;99.90;;;;;;4983359;28;20455;-69
2023/04/22 07:08:06;;;;;;;5.22;2.63;;;11.90;99.90;;;;;;4969775;28;20855;-70
2023/04/22 07:10:32;;;;;;;5.32;3.03;;;12.00;99.90;;;;;;4987196;28;20038;-70
2023/04/22 07:12:58;;;;;;;5.75;2.90;;;12.10;99.90;;;;;;4986847;28;20458;-70
2023/04/22 07:15:23;;;;;;;5.95;2.45;;;12.20;99.90;;;;;;4987961;28;20041;-70
2023/04/22 07:17:49;;;;;;;5.70;2.70;;;12.40;99.90;;;;;;4985985;28;20022;-69
2023/04/22 07:20:15;;;;;;;9.65;2.88;;;12.40;99.90;;;;;;4984628;28;20035;-69
2023/04/22 07:22:40;;;;;;;5.43;2.78;;;12.60;99.90;;;;;;4989207;28;20040;-77
2023/04/22 07:25:06;;;;;;;6.50;3.30;;;12.70;99.90;;;;;;4990590;28;20046;-72
2023/04/22 07:27:34;;;;;;;7.18;3.50;;;12.90;99.90;;;;;;4989898;28;20113;-71
2023/04/22 07:29:59;;;;;;;5.78;3.33;;;13.00;99.90;;;;;;4988123;28;20031;-71
2023/04/22 07:32:25;;;;;;;6.18;2.90;;;13.10;99.90;;;;;;4986577;28;20105;-73
2023/04/22 07:34:50;;;;;;;6.60;3.20;;;13.30;99.90;;;;;;4990645;28;20034;-77
2023/04/22 07:37:16;;;;;;;7.53;3.83;;;13.40;99.90;;;;;;4991003;28;20057;-72
2023/04/22 07:39:41;;;;;;;7.82;3.75;;;13.60;99.90;;;;;;4992039;28;20044;-73
2023/04/22 07:42:07;;;;;;;5.68;3.20;;;13.80;99.90;;;;;;4991166;28;20030;-73
2023/04/22 07:44:33;;;;;;;6.28;3.13;;;14.00;99.90;;;;;;4991692;28;20077;-73
2023/04/22 07:46:59;;;;;;;6.47;2.22;;;14.20;99.90;;;;;;4990821;28;20502;-72
2023/04/22 07:49:24;;;;;;;6.30;2.88;;;14.40;99.90;;;;;;4991425;28;20443;-70
2023/04/22 07:51:50;;;;;;;5.30;3.10;;;14.50;99.90;;;;;;4991838;28;20129;-72
2023/04/22 07:54:16;;;;;;;5.07;3.30;;;14.70;99.90;;;;;;4990987;28;20040;-73
2023/04/22 07:56:42;;;;;;;5.80;2.78;;;14.70;99.90;;;;;;4991834;28;20463;-72
2023/04/22 07:59:07;;;;;;;6.35;2.28;;;14.80;99.90;;;;;;4990367;28;20045;-72
2023/04/22 08:01:33;;;;;;;4.15;2.30;;;14.90;99.90;;;;;;4990783;28;20030;-72
2023/04/22 08:03:58;;;;;;;4.22;2.10;;;15.00;99.90;;;;;;4990567;28;20442;-72
2023/04/22 08:06:24;;;;;;;4.40;2.00;;;15.10;99.90;;;;;;4991360;28;20119;-73
2023/04/22 08:08:50;;;;;;;7.55;2.25;;;15.20;99.90;;;;;;4990984;28;20085;-71
2023/04/22 08:11:15;;;;;;;4.43;2.05;;;15.30;99.90;;;;;;4990494;28;20026;-72
2023/04/22 08:13:41;;;;;;;13.48;2.80;;;15.40;99.90;;;;;;4991455;28;20030;-73
2023/04/22 08:16:07;;;;;;;4.70;1.90;;;15.50;99.90;;;;;;4989786;28;20040;-75
2023/04/22 08:18:32;;;;;;;5.35;2.20;;;15.80;99.90;;;;;;4990811;28;20077;-73
2023/04/22 08:20:58;;;;;;;3.03;1.80;;;15.90;99.90;;;;;;4990421;28;20053;-73
2023/04/22 08:23:24;;;;;;;4.55;1.65;;;16.00;99.90;;;;;;4989975;28;20092;-73
2023/04/22 08:25:50;;;;;;;2.75;1.80;;;16.10;99.90;;;;;;4987274;28;20034;-72
2023/04/22 08:28:16;;;;;;;4.18;1.70;;;16.20;99.90;;;;;;4990077;28;20089;-72
2023/04/22 08:30:42;;;;;;;9.23;1.90;;;16.30;99.90;;;;;;4989711;28;20034;-72
2023/04/22 08:33:08;;;;;;;3.13;1.65;;;16.50;99.90;;;;;;4988899;28;20033;-72
2023/04/22 08:35:37;;;;;;;1.88;1.25;;;16.80;99.90;;;;;;4989401;28;20062;-71
2023/04/22 08:38:02;;;;;;;2.35;1.40;;;16.90;99.90;;;;;;4989090;28;20117;-71
2023/04/22 08:40:28;;;;;;;2.78;1.50;;;17.10;99.90;;;;;;4990494;28;20657;-71
2023/04/22 08:42:55;;;;;;;3.38;1.60;;;17.20;99.90;;;;;;4990663;28;20030;-75
2023/04/22 08:45:22;;;;;;;7.00;2.00;;;17.20;99.90;;;;;;4988339;28;20038;-73
2023/04/22 08:47:48;;;;;;;3.80;1.92;;;17.30;99.90;;;;;;4989151;28;20444;-72
2023/04/22 08:50:14;;;;;;;3.05;1.65;;;17.30;99.90;;;;;;4988847;28;20109;-74
2023/04/22 08:52:43;;;;;;;2.08;1.58;;;17.40;99.90;;;;;;4989605;28;20129;-74
2023/04/22 08:55:09;;;;;;;7.15;1.30;;;17.60;99.90;;;;;;5003389;28;20066;-72
2023/04/22 08:57:38;;;;;;;2.60;1.42;;;17.80;99.90;;;;;;4990658;28;20023;-71
2023/04/22 09:00:06;;;;;;;2.00;1.30;;;18.10;99.90;;;;;;4989662;28;20062;-73
2023/04/22 09:02:32;;;;;;;1.95;1.23;;;18.40;99.90;;;;;;4987658;28;20526;-71
2023/04/22 09:05:00;;;;;;;1.63;1.20;;;18.30;99.90;;;;;;4987853;28;20169;-75
2023/04/22 09:07:27;;;;;;;1.70;1.10;;;18.20;99.90;;;;;;4989471;28;20483;-71
2023/04/22 09:09:56;;;;;;;2.03;1.40;;;18.40;99.90;;;;;;4989725;28;20768;-72
2023/04/22 09:12:22;;;;;;;2.70;1.40;;;18.60;99.90;;;;;;4988909;28;20046;-71
2023/04/22 09:14:48;;;;;;;3.92;1.55;;;18.70;99.90;;;;;;4989590;28;20474;-71
2023/04/22 09:17:28;;;;;;;2.88;1.30;;;18.60;99.90;;;;;;4987182;28;20092;-72
2023/04/22 09:20:00;;;;;;;3.00;1.63;;;18.70;99.90;;;;;;4990146;28;20063;-71
2023/04/22 09:22:28;;;;;;;2.78;1.50;;;18.60;99.90;;;;;;4988717;28;20585;-73
2023/04/22 09:24:54;;;;;;;2.10;1.40;;;18.70;99.90;;;;;;4989057;28;20141;-72
2023/04/22 09:27:23;;;;;;;3.13;1.40;;;18.70;99.90;;;;;;4988882;28;20616;-71
2023/04/22 09:29:50;;;;;;;1.90;1.50;;;18.80;99.90;;;;;;4990080;28;20038;-72
2023/04/22 09:32:16;;;;;;;2.38;1.50;;;18.70;99.90;;;;;;4989006;28;20113;-74
2023/04/22 09:34:50;;;;;;;3.53;1.60;;;18.80;99.90;;;;;;4989960;28;20376;-71
2023/04/22 09:37:23;;;;;;;5.38;1.20;;;18.60;99.00;;;;;;4989029;28;20501;-71
2023/04/22 09:39:49;;;;;;;3.63;1.20;;;18.50;99.00;;;;;;4989442;28;20034;-70
2023/04/22 09:42:16;;;;;;;2.13;1.33;;;18.30;99.90;;;;;;4985162;28;20033;-71
2023/04/22 09:44:47;;;;;;;4.32;1.20;;;18.20;96.90;;;;;;4989498;28;20042;-72
2023/04/22 09:47:13;;;;;;;3.67;1.17;;;18.20;96.30;;;;;;4988811;28;20030;-72
2023/04/22 09:49:44;;;;;;;3.15;1.55;;;18.20;98.60;;;;;;4989621;28;20026;-73
2023/04/22 09:52:10;;;;;;;1.58;1.30;;;18.40;97.60;;;;;;4987320;28;20026;-71
2023/04/22 09:54:36;;;;;;;4.53;1.10;;;18.50;96.60;;;;;;4988256;28;20030;-72
2023/04/22 09:57:03;;;;;;;4.93;1.20;;;18.60;93.60;;;;;;4988323;28;20038;-76
2023/04/22 09:59:29;;;;;;;2.08;1.40;;;18.70;93.60;;;;;;4989486;28;20038;-73
2023/04/22 10:02:02;;;;;;;2.70;1.73;;;19.10;94.00;;;;;;4989186;28;20042;-71
2023/04/22 10:04:28;;;;;;;2.22;1.42;;;19.40;92.40;;;;;;4989508;28;20109;-74
2023/04/22 10:06:55;;;;;;;2.03;1.25;;;19.50;90.20;;;;;;4987907;28;20038;-74
2023/04/22 10:09:23;;;;;;;3.15;1.23;;;19.70;90.40;;;;;;4988605;28;20675;-74
2023/04/22 10:11:52;;;;;;;4.80;1.48;;;19.70;81.50;;;;;;4988900;28;20065;-71
2023/04/22 10:14:22;;;;;;;2.22;1.30;;;19.50;81.70;;;;;;4988564;28;20034;-73
2023/04/22 10:16:49;;;;;;;3.83;1.33;;;19.40;87.60;;;;;;4989358;28;20027;-71
2023/04/22 10:19:22;;;;;;;3.20;1.48;;;19.60;89.20;;;;;;4988351;28;20038;-71
2023/04/22 10:21:52;;;;;;;3.08;1.30;;;19.50;91.10;;;;;;4989521;28;20474;-73
2023/04/22 10:24:19;;;;;;;4.57;2.58;;;19.70;89.30;;;;;;4987702;28;20380;-72
2023/04/22 10:26:56;;;;;;;10.02;4.95;;;19.80;90.20;;;;;;4988532;28;20057;-72
2023/04/22 10:29:23;;;;;;;17.27;8.82;;;20.30;91.20;;;;;;4986911;28;20344;-71
2023/04/22 10:32:16;;;;;;;9.75;4.88;;;20.20;91.00;;;;;;4989348;28;20042;-72
2023/04/22 10:34:42;;;;;;;7.47;2.72;;;20.10;90.90;;;;;;4989198;28;20053;-72
2023/04/22 10:37:13;;;;;;;3.63;2.15;;;20.10;90.80;;;;;;4988088;28;20053;-72
2023/04/22 10:39:41;;;;;;;3.78;1.92;;;20.10;91.30;;;;;;4988477;28;20395;-73
2023/04/22 10:42:10;;;;;;;11.38;2.80;;;20.10;94.00;;;;;;4988008;28;20475;-73
2023/04/22 10:44:49;;;;;;;2.37;1.50;;;19.70;87.20;;;;;;4988971;28;20381;-73
2023/04/22 10:47:43;;;;;;;3.38;1.73;;;19.50;93.40;;;;;;4987271;28;20035;-72
2023/04/22 10:50:26;;;;;;;4.60;1.77;;;19.70;85.80;;;;;;4979185;28;20073;-72
2023/04/22 10:53:02;;;;;;;1.88;1.48;;;20.10;84.30;;;;;;4988632;28;20043;-73
2023/04/22 10:55:50;;;;;;;4.38;1.67;;;20.50;91.90;;;;;;4985886;28;20105;-72
2023/04/22 10:58:25;;;;;;;3.30;1.60;;;20.70;86.50;;;;;;4986606;28;20056;-72
2023/04/22 11:00:58;;;;;;;3.35;1.50;;;20.80;83.60;;;;;;4972785;28;20037;-74
2023/04/22 11:03:29;;;;;;;1.80;1.40;;;20.90;77.00;;;;;;4990425;28;20030;-74
2023/04/22 11:06:18;;;;;;;5.15;1.80;;;20.70;76.50;;;;;;4991249;28;20046;-71
2023/04/22 11:09:06;;;;;;;2.67;1.58;;;20.40;69.80;;;;;;4998791;28;20374;-73
2023/04/22 11:11:31;;;;;;;2.00;1.20;;;20.50;77.30;;;;;;4992227;28;20041;-71
2023/04/22 11:13:57;;;;;;;3.13;1.60;;;20.80;77.90;;;;;;4989812;28;20042;-73
2023/04/22 11:16:23;;;;;;;2.78;1.60;;;20.80;77.60;;;;;;4990118;28;20042;-72
2023/04/22 11:18:49;;;;;;;3.20;1.35;;;20.90;84.90;;;;;;5006631;28;20049;-72
2023/04/22 11:21:15;;;;;;;2.53;1.55;;;20.80;75.40;;;;;;4990289;28;20072;-71
2023/04/22 11:23:51;;;;;;;3.67;1.40;;;20.80;80.70;;;;;;4990816;28;20034;-73
2023/04/22 11:26:17;;;;;;;2.20;1.52;;;20.90;81.30;;;;;;4989042;28;20040;-73
2023/04/22 11:28:47;;;;;;;3.30;1.88;;;21.40;75.90;;;;;;4990945;28;20031;-71
2023/04/22 11:31:13;;;;;;;2.60;1.42;;;21.90;75.70;;;;;;4988641;28;20534;-72
2023/04/22 11:33:39;;;;;;;4.03;1.58;;;21.90;71.00;;;;;;4989840;28;20027;-72
2023/04/22 11:36:10;;;;;;;5.20;1.83;;;21.70;63.60;;;;;;4989916;28;20049;-76
2023/04/22 11:38:36;;;;;;;4.43;1.38;;;21.60;72.70;;;;;;4989978;28;20042;-74
2023/04/22 11:41:03;;;;;;;3.67;1.40;;;21.40;72.90;;;;;;5002363;28;20042;-73
2023/04/22 11:43:29;;;;;;;2.53;1.60;;;21.40;72.20;;;;;;4985542;28;20061;-72
2023/04/22 11:45:56;;;;;;;5.50;1.70;;;21.80;69.10;;;;;;4990323;28;20041;-74
2023/04/22 11:48:21;;;;;;;2.28;1.50;;;22.00;67.90;;;;;;4988674;28;20547;-72
2023/04/22 11:50:47;;;;;;;29.73;9.18;;;22.10;68.60;;;;;;4989915;28;20109;-73
2023/04/22 11:53:18;;;;;;;9.23;2.60;;;21.90;66.70;;;;;;4987528;28;20026;-71
2023/04/22 11:55:45;;;;;;;2.55;1.30;;;21.90;71.50;;;;;;4990649;28;20465;-71
2023/04/22 11:58:14;;;;;;;3.92;2.15;;;22.00;69.70;;;;;;4971615;28;20034;-73
2023/04/22 12:00:48;;;;;;;5.70;1.50;;;21.90;65.00;;;;;;4978050;28;20034;-73
2023/04/22 12:03:15;;;;;;;10.48;2.67;;;21.60;65.20;;;;;;4967777;28;20027;-73
2023/04/22 12:05:43;;;;;;;3.70;1.42;;;21.60;65.40;;;;;;4991518;28;20038;-74
2023/04/22 12:08:38;;;;;;;2.45;1.58;;;21.80;64.10;;;;;;4984496;28;20059;-74
2023/04/22 12:11:06;;;;;;;2.45;1.20;;;21.90;66.80;;;;;;4991170;28;20410;-74
2023/04/22 12:13:35;;;;;;;2.80;1.60;;;22.10;62.80;;;;;;4981317;28;20977;-76
2023/04/22 12:16:04;;;;;;;3.20;1.42;;;22.10;65.90;;;;;;4987140;28;20123;-73
2023/04/22 12:18:38;;;;;;;2.75;1.33;;;22.30;66.00;;;;;;4984025;28;20082;-72
2023/04/22 12:21:10;;;;;;;5.72;1.52;;;22.60;65.90;;;;;;4981251;28;20426;-72
2023/04/22 12:23:51;;;;;;;2.63;1.48;;;22.10;63.10;;;;;;4987142;28;20054;-71
2023/04/22 12:26:19;;;;;;;4.25;1.40;;;21.90;66.00;;;;;;4986182;28;20038;-73
2023/04/22 12:28:45;;;;;;;4.25;1.50;;;21.60;61.10;;;;;;4970523;28;20065;-73
2023/04/22 12:31:12;;;;;;;3.05;1.40;;;21.70;65.80;;;;;;4970685;28;20105;-74
2023/04/22 12:33:38;;;;;;;2.55;1.48;;;21.90;63.40;;;;;;4971163;28;20101;-74
2023/04/22 12:36:05;;;;;;;5.13;1.48;;;21.90;62.00;;;;;;4982794;28;20169;-74
2023/04/22 12:38:31;;;;;;;2.75;1.20;;;21.70;64.80;;;;;;4986915;28;20452;-73
2023/04/22 12:40:58;;;;;;;4.25;1.70;;;21.80;58.00;;;;;;4989308;28;20463;-74
2023/04/22 12:43:24;;;;;;;2.47;1.38;;;21.80;59.80;;;;;;4970632;28;20376;-72
2023/04/22 12:45:49;;;;;;;3.80;1.42;;;21.90;63.80;;;;;;4983273;28;20046;-72